Time;durP1;ratioP1;P1;durP2;ratioP2;P2;SDS_P1;SDS_P2;PMS_P1;PMS_P2;Temp;Humidity;BMP_temperature;BMP_pressure;BME280_temperature;BME280_humidity;BME280_pressure;Samples;Min_cycle;Max_cycle;Signal;HPM_P1;HPM_P2
2020/12/26 00:01:20;;;;;;;4.50;2.83;;;9.90;96.70;;;;;;4984319;28;20124;-81
2020/12/26 00:03:48;;;;;;;6.70;3.17;;;9.90;96.70;;;;;;4982579;28;20064;-81
2020/12/26 00:06:17;;;;;;;6.70;2.33;;;9.90;96.70;;;;;;4980934;28;20039;-80
2020/12/26 00:08:45;;;;;;;2.72;1.13;;;9.90;96.70;;;;;;4985199;28;20045;-80
2020/12/26 00:11:15;;;;;;;1.55;0.85;;;9.80;96.70;;;;;;4966080;28;20057;-81
2020/12/26 00:13:43;;;;;;;3.03;0.95;;;9.70;96.70;;;;;;4979671;28;20042;-81
2020/12/26 00:16:14;;;;;;;2.80;1.00;;;9.80;96.70;;;;;;4983911;28;20496;-81
2020/12/26 00:18:42;;;;;;;3.30;0.90;;;9.70;96.70;;;;;;4963498;28;20844;-81
2020/12/26 00:21:12;;;;;;;2.58;0.52;;;9.70;96.70;;;;;;4979138;28;20061;-81
2020/12/26 00:23:40;;;;;;;1.50;0.70;;;9.70;96.70;;;;;;4984494;28;20114;-81
2020/12/26 00:26:07;;;;;;;1.83;0.68;;;9.60;96.70;;;;;;4979595;28;20637;-82
2020/12/26 00:28:35;;;;;;;2.33;0.60;;;9.40;96.70;;;;;;4950507;28;20038;-81
2020/12/26 00:31:03;;;;;;;0.93;0.57;;;9.40;96.70;;;;;;4981473;28;20055;-81
2020/12/26 00:33:31;;;;;;;3.35;1.20;;;9.30;96.70;;;;;;4967383;28;20051;-81
2020/12/26 00:36:00;;;;;;;1.10;0.40;;;9.30;96.70;;;;;;4965177;28;20154;-80
2020/12/26 00:38:27;;;;;;;1.88;0.50;;;9.20;96.70;;;;;;4955389;28;20505;-80
2020/12/26 00:40:55;;;;;;;3.00;0.90;;;9.30;96.70;;;;;;4981918;28;20125;-81
2020/12/26 00:43:22;;;;;;;1.23;0.60;;;9.40;96.70;;;;;;4988950;28;20065;-81
2020/12/26 00:45:49;;;;;;;1.45;0.40;;;9.30;96.70;;;;;;4962839;28;20053;-81
2020/12/26 00:48:17;;;;;;;1.65;0.40;;;9.40;96.70;;;;;;4983078;28;20046;-80
2020/12/26 00:50:45;;;;;;;1.92;0.30;;;9.30;96.70;;;;;;4976131;28;20576;-80
2020/12/26 00:53:13;;;;;;;1.35;0.40;;;9.20;96.70;;;;;;4961898;28;20501;-81
2020/12/26 00:55:40;;;;;;;2.15;0.50;;;9.10;96.70;;;;;;4980389;28;20038;-81
2020/12/26 00:58:08;;;;;;;0.57;0.30;;;9.00;96.70;;;;;;4981549;28;20054;-81
2020/12/26 01:00:37;;;;;;;1.08;0.30;;;9.10;96.70;;;;;;4970364;28;20053;-81
2020/12/26 01:03:27;;;;;;;1.45;0.30;;;9.30;96.70;;;;;;4961225;28;20049;-81
2020/12/26 01:05:55;;;;;;;1.20;0.32;;;9.40;96.70;;;;;;4986365;28;20105;-81
2020/12/26 01:08:22;;;;;;;0.85;0.50;;;9.40;96.70;;;;;;4964463;28;20046;-81
2020/12/26 01:10:49;;;;;;;1.85;0.75;;;9.30;96.70;;;;;;4981844;28;20113;-81
2020/12/26 01:13:18;;;;;;;1.88;0.52;;;9.30;96.70;;;;;;4964262;28;20038;-81
2020/12/26 01:15:45;;;;;;;2.05;0.65;;;9.40;96.70;;;;;;4965994;28;20038;-85
2020/12/26 01:18:16;;;;;;;2.65;0.70;;;9.50;96.70;;;;;;4951611;28;20061;-84
2020/12/26 01:20:44;;;;;;;2.65;0.75;;;9.40;96.70;;;;;;4963804;28;20640;-81
2020/12/26 01:23:11;;;;;;;2.10;0.75;;;9.40;96.70;;;;;;4964562;28;20050;-81
2020/12/26 01:25:39;;;;;;;3.10;1.00;;;9.40;96.70;;;;;;4984738;28;20500;-81
2020/12/26 01:28:06;;;;;;;2.13;0.60;;;9.40;96.70;;;;;;4948438;28;20073;-81
2020/12/26 01:30:33;;;;;;;0.98;0.43;;;9.40;96.70;;;;;;4964011;28;20043;-82
2020/12/26 01:33:00;;;;;;;2.05;0.98;;;9.40;96.70;;;;;;4960844;28;20531;-81
2020/12/26 01:35:27;;;;;;;2.58;1.00;;;9.40;96.70;;;;;;4963901;28;20074;-82
2020/12/26 01:37:55;;;;;;;2.70;0.75;;;9.40;96.70;;;;;;4964660;28;20084;-82
2020/12/26 01:40:23;;;;;;;1.17;0.82;;;9.40;96.70;;;;;;4972374;28;20062;-81
2020/12/26 01:42:50;;;;;;;2.08;0.90;;;9.40;96.70;;;;;;4978025;28;20046;-81
2020/12/26 01:45:18;;;;;;;1.98;0.73;;;9.40;96.70;;;;;;4980367;28;20047;-81
2020/12/26 01:47:46;;;;;;;1.75;0.60;;;9.30;96.70;;;;;;4962044;28;20090;-82
2020/12/26 01:50:15;;;;;;;1.48;0.50;;;9.20;96.70;;;;;;4978758;28;20074;-81
2020/12/26 01:52:44;;;;;;;0.80;0.40;;;9.20;96.70;;;;;;4969660;28;20416;-81
2020/12/26 01:55:14;;;;;;;0.45;0.20;;;9.20;96.70;;;;;;4977544;28;20046;-81
2020/12/26 01:57:50;;;;;;;0.40;0.20;;;9.20;96.70;;;;;;4978715;28;20042;-81
2020/12/26 02:00:18;;;;;;;0.55;0.10;;;9.20;96.70;;;;;;4952676;28;20046;-81
2020/12/26 02:02:45;;;;;;;0.55;0.10;;;9.20;96.70;;;;;;4947613;28;20177;-81
2020/12/26 02:05:15;;;;;;;0.65;0.10;;;9.10;96.70;;;;;;4980618;28;20042;-81
2020/12/26 02:07:44;;;;;;;0.00;0.00;;;9.10;96.70;;;;;;4975625;28;20513;-81
2020/12/26 02:10:13;;;;;;;0.00;0.00;;;9.10;96.70;;;;;;4963054;28;20069;-81
2020/12/26 02:12:41;;;;;;;0.00;0.00;;;9.00;96.70;;;;;;4963744;28;20042;-81
2020/12/26 02:15:11;;;;;;;0.00;0.00;;;9.10;96.70;;;;;;4950471;28;20034;-80
2020/12/26 02:17:39;;;;;;;0.00;0.00;;;9.10;96.70;;;;;;4981384;28;20046;-81
2020/12/26 02:20:06;;;;;;;0.10;0.00;;;9.10;96.70;;;;;;4965076;28;20588;-81
2020/12/26 02:22:34;;;;;;;0.08;0.00;;;9.00;96.70;;;;;;4945544;28;20062;-81
2020/12/26 02:25:02;;;;;;;0.05;0.00;;;9.10;96.70;;;;;;4980597;28;20129;-81
2020/12/26 02:27:30;;;;;;;0.10;0.00;;;9.10;96.70;;;;;;4979015;28;20053;-81
2020/12/26 02:29:57;;;;;;;0.10;0.00;;;9.10;96.70;;;;;;4978937;28;20038;-81
2020/12/26 02:32:24;;;;;;;0.00;0.00;;;9.10;96.70;;;;;;4974366;28;20050;-81
2020/12/26 02:34:51;;;;;;;0.00;0.00;;;9.10;96.70;;;;;;5016776;28;20126;-81
2020/12/26 02:37:18;;;;;;;0.13;0.00;;;9.10;96.70;;;;;;4983462;28;20038;-81
2020/12/26 02:39:46;;;;;;;0.08;0.00;;;9.10;96.70;;;;;;5005133;28;20049;-81
2020/12/26 02:42:14;;;;;;;0.05;0.00;;;9.20;96.70;;;;;;4982880;28;20108;-81
2020/12/26 02:44:41;;;;;;;1.00;0.00;;;9.10;96.70;;;;;;4999357;28;20161;-81
2020/12/26 02:47:08;;;;;;;0.00;0.00;;;9.10;96.70;;;;;;4982946;28;20058;-81
2020/12/26 02:49:36;;;;;;;0.00;0.00;;;9.10;96.70;;;;;;4983355;28;20076;-81
2020/12/26 02:52:03;;;;;;;0.38;0.00;;;9.10;96.70;;;;;;5000575;28;20129;-81
2020/12/26 02:54:31;;;;;;;0.00;0.00;;;9.20;96.70;;;;;;4983545;28;20064;-81
2020/12/26 02:56:58;;;;;;;0.00;0.00;;;9.20;96.70;;;;;;4984350;28;20099;-81
2020/12/26 02:59:26;;;;;;;0.20;0.00;;;9.00;96.70;;;;;;4969243;28;20052;-81
2020/12/26 03:01:53;;;;;;;0.00;0.00;;;9.20;96.70;;;;;;4986418;28;20471;-81
2020/12/26 03:04:20;;;;;;;0.00;0.00;;;9.20;96.70;;;;;;5002420;28;20072;-81
2020/12/26 03:06:47;;;;;;;0.00;0.00;;;9.30;96.70;;;;;;5002153;28;20045;-81
2020/12/26 03:09:14;;;;;;;0.28;0.00;;;9.30;96.70;;;;;;4986709;28;20030;-81
2020/12/26 03:11:42;;;;;;;0.03;0.00;;;9.30;96.70;;;;;;5018500;28;20044;-81
2020/12/26 03:14:09;;;;;;;0.00;0.00;;;9.20;96.70;;;;;;5003624;28;20462;-81
2020/12/26 03:16:38;;;;;;;0.03;0.00;;;9.20;96.70;;;;;;4987288;28;20056;-81
2020/12/26 03:19:05;;;;;;;0.00;0.00;;;9.30;96.70;;;;;;5002160;28;20771;-81
2020/12/26 03:21:33;;;;;;;0.08;0.00;;;9.20;96.70;;;;;;5005019;28;20062;-81
2020/12/26 03:24:00;;;;;;;0.00;0.00;;;9.10;96.70;;;;;;5001517;28;20519;-81
2020/12/26 03:26:29;;;;;;;0.00;0.00;;;9.10;96.70;;;;;;4984899;28;20100;-81
2020/12/26 03:28:56;;;;;;;0.08;0.00;;;9.20;96.70;;;;;;5017735;28;20057;-81
2020/12/26 03:31:23;;;;;;;0.00;0.00;;;9.10;96.70;;;;;;4985702;28;20096;-81
2020/12/26 03:33:51;;;;;;;0.32;0.00;;;9.10;96.70;;;;;;5007594;28;20381;-81
2020/12/26 03:36:19;;;;;;;0.00;0.00;;;9.10;96.70;;;;;;5017658;28;20409;-81
2020/12/26 03:38:46;;;;;;;0.10;0.00;;;9.10;96.70;;;;;;5003074;28;20904;-81
2020/12/26 03:41:13;;;;;;;0.10;0.00;;;9.20;96.70;;;;;;5002464;28;20139;-80
2020/12/26 03:43:40;;;;;;;0.10;0.00;;;9.20;96.70;;;;;;5018482;28;20044;-80
2020/12/26 03:46:07;;;;;;;0.38;0.00;;;9.20;96.70;;;;;;5018319;28;20046;-80
2020/12/26 03:48:35;;;;;;;0.00;0.00;;;9.20;96.70;;;;;;5016868;28;20076;-80
2020/12/26 03:51:03;;;;;;;0.10;0.00;;;9.30;96.70;;;;;;4996346;28;20034;-80
2020/12/26 03:53:31;;;;;;;0.10;0.00;;;9.20;96.70;;;;;;4993989;28;20034;-81
2020/12/26 03:55:58;;;;;;;0.52;0.22;;;9.20;96.70;;;;;;4986890;28;20041;-80
2020/12/26 03:58:26;;;;;;;0.20;0.00;;;9.10;96.70;;;;;;5017985;28;20535;-81
2020/12/26 04:00:53;;;;;;;0.08;0.00;;;9.00;96.70;;;;;;4995754;28;20121;-81
2020/12/26 04:03:20;;;;;;;0.30;0.10;;;8.90;96.70;;;;;;5016777;28;20030;-80
2020/12/26 04:05:47;;;;;;;0.25;0.05;;;8.90;96.70;;;;;;4987619;28;20479;-81
2020/12/26 04:08:15;;;;;;;0.10;0.05;;;8.90;96.70;;;;;;5004811;28;20046;-80
2020/12/26 04:10:42;;;;;;;0.10;0.00;;;8.90;96.70;;;;;;5001328;28;20042;-80
2020/12/26 04:13:09;;;;;;;0.00;0.00;;;8.80;96.70;;;;;;5017170;28;20112;-81
2020/12/26 04:15:37;;;;;;;0.45;0.00;;;8.80;96.70;;;;;;5017541;28;20046;-81
2020/12/26 04:18:04;;;;;;;0.22;0.10;;;8.80;96.70;;;;;;4987335;28;20037;-80
2020/12/26 04:20:31;;;;;;;0.10;0.10;;;8.80;96.70;;;;;;5010985;28;20064;-81
2020/12/26 04:22:58;;;;;;;0.20;0.00;;;8.70;96.70;;;;;;5002192;28;20464;-81
2020/12/26 04:25:26;;;;;;;0.00;0.00;;;8.70;96.70;;;;;;5017538;28;20128;-81
2020/12/26 04:27:53;;;;;;;0.10;0.00;;;8.70;96.70;;;;;;5000635;28;20045;-81
2020/12/26 04:30:21;;;;;;;0.77;0.00;;;8.60;96.70;;;;;;4981530;28;20141;-80
2020/12/26 04:32:50;;;;;;;0.52;0.00;;;8.60;96.70;;;;;;5015459;28;20045;-81
2020/12/26 04:35:20;;;;;;;0.10;0.00;;;8.60;96.70;;;;;;5015978;28;20508;-81
2020/12/26 04:37:47;;;;;;;0.00;0.00;;;8.50;96.70;;;;;;4999191;28;20574;-80
2020/12/26 04:40:15;;;;;;;0.25;0.00;;;8.50;96.70;;;;;;5013151;28;20042;-80
2020/12/26 04:42:43;;;;;;;0.10;0.00;;;8.60;96.70;;;;;;5002301;28;20148;-80
2020/12/26 04:45:11;;;;;;;1.23;0.13;;;8.60;96.70;;;;;;4999761;28;20128;-80
2020/12/26 04:47:43;;;;;;;0.32;0.10;;;8.70;96.70;;;;;;5001908;28;20129;-81
2020/12/26 04:50:10;;;;;;;0.52;0.30;;;8.70;96.70;;;;;;5005345;28;20075;-81
2020/12/26 04:52:45;;;;;;;0.30;0.10;;;8.70;96.70;;;;;;4998690;28;20492;-80
2020/12/26 04:55:15;;;;;;;0.30;0.00;;;8.70;96.70;;;;;;4992316;28;20192;-80
2020/12/26 04:57:46;;;;;;;0.30;0.00;;;8.70;96.70;;;;;;4989339;28;20038;-80
2020/12/26 05:00:14;;;;;;;0.10;0.00;;;8.60;96.70;;;;;;5015264;28;20042;-80
2020/12/26 05:02:42;;;;;;;0.00;0.00;;;8.60;96.70;;;;;;5017030;28;20042;-80
2020/12/26 05:05:09;;;;;;;0.00;0.00;;;8.70;96.70;;;;;;5000058;28;20045;-80
2020/12/26 05:07:36;;;;;;;0.00;0.00;;;8.80;96.70;;;;;;4965686;28;20042;-80
2020/12/26 05:10:04;;;;;;;0.30;0.08;;;8.80;96.70;;;;;;4993351;28;20407;-80
2020/12/26 05:12:31;;;;;;;0.00;0.00;;;8.80;96.70;;;;;;4984170;28;20044;-80
2020/12/26 05:15:01;;;;;;;0.10;0.10;;;8.70;96.70;;;;;;4983227;28;20048;-81
2020/12/26 05:17:28;;;;;;;0.10;0.00;;;8.80;96.70;;;;;;4984956;28;20042;-81
2020/12/26 05:19:56;;;;;;;0.10;0.00;;;8.80;96.70;;;;;;4998529;28;20053;-80
2020/12/26 05:22:29;;;;;;;0.00;0.00;;;8.70;96.70;;;;;;5012560;28;20093;-81
2020/12/26 05:25:05;;;;;;;0.00;0.00;;;8.80;96.70;;;;;;4996687;28;20587;-80
2020/12/26 05:27:33;;;;;;;0.00;0.00;;;8.70;96.70;;;;;;4983320;28;20049;-81
2020/12/26 05:30:03;;;;;;;0.00;0.00;;;8.70;96.70;;;;;;5000844;28;20045;-80
2020/12/26 05:32:31;;;;;;;0.35;0.15;;;8.60;96.70;;;;;;5014455;28;20594;-80
2020/12/26 05:35:04;;;;;;;0.00;0.00;;;8.50;96.70;;;;;;4999474;28;20038;-80
2020/12/26 05:37:31;;;;;;;0.00;0.00;;;8.60;96.70;;;;;;4976173;28;20130;-80
2020/12/26 05:40:00;;;;;;;0.00;0.00;;;8.60;96.70;;;;;;4964918;28;20357;-80
2020/12/26 05:42:29;;;;;;;0.00;0.00;;;8.50;96.70;;;;;;5000275;28;20403;-80
2020/12/26 05:45:05;;;;;;;0.00;0.00;;;8.50;96.70;;;;;;4999026;28;20065;-80
2020/12/26 05:47:33;;;;;;;0.10;0.00;;;8.40;96.70;;;;;;4983673;28;20050;-80
2020/12/26 05:50:00;;;;;;;1.00;0.00;;;8.40;96.70;;;;;;4994771;28;20045;-80
2020/12/26 05:52:52;;;;;;;0.65;0.00;;;8.40;96.70;;;;;;4999901;28;20065;-80
2020/12/26 05:55:21;;;;;;;0.00;0.00;;;8.40;96.70;;;;;;5014378;28;20547;-80
2020/12/26 05:57:54;;;;;;;0.10;0.00;;;8.40;96.70;;;;;;4999545;28;20048;-80
2020/12/26 06:00:31;;;;;;;0.55;0.00;;;8.40;96.70;;;;;;4967839;28;20141;-81
2020/12/26 06:02:59;;;;;;;0.00;0.00;;;8.40;96.70;;;;;;4991376;28;20034;-80
2020/12/26 06:05:28;;;;;;;0.00;0.00;;;8.40;96.70;;;;;;5016111;28;20050;-80
2020/12/26 06:07:55;;;;;;;0.08;0.00;;;8.50;96.70;;;;;;4988751;28;20077;-80
2020/12/26 06:10:22;;;;;;;1.75;0.00;;;8.50;96.70;;;;;;4991529;28;20069;-81
2020/12/26 06:12:50;;;;;;;0.30;0.00;;;8.40;96.70;;;;;;4983563;28;20624;-80
2020/12/26 06:15:25;;;;;;;0.00;0.00;;;8.40;96.70;;;;;;5005352;28;20142;-80
2020/12/26 06:18:12;;;;;;;0.00;0.00;;;8.40;96.70;;;;;;4985165;28;20049;-80
2020/12/26 06:20:39;;;;;;;0.30;0.00;;;8.40;96.70;;;;;;4999570;28;20042;-81
2020/12/26 06:23:14;;;;;;;0.68;0.00;;;8.30;96.70;;;;;;5014888;28;20137;-83
2020/12/26 06:25:43;;;;;;;0.00;0.00;;;8.30;96.70;;;;;;5016972;28;20054;-84
2020/12/26 06:28:24;;;;;;;0.00;0.00;;;8.40;96.70;;;;;;5001999;28;20038;-83
2020/12/26 06:30:55;;;;;;;0.15;0.05;;;8.40;96.70;;;;;;5000201;28;20049;-82
2020/12/26 06:33:26;;;;;;;0.10;0.00;;;8.50;96.70;;;;;;4972208;28;20129;-83
2020/12/26 06:35:56;;;;;;;0.10;0.00;;;8.50;96.70;;;;;;4988635;28;20073;-83
2020/12/26 06:38:27;;;;;;;0.00;0.00;;;8.40;96.70;;;;;;5005216;28;20038;-83
2020/12/26 06:40:56;;;;;;;0.17;0.00;;;8.40;96.70;;;;;;5019638;28;20041;-83
2020/12/26 06:43:41;;;;;;;0.55;0.10;;;8.60;96.70;;;;;;5004914;28;20449;-83
2020/12/26 06:46:29;;;;;;;0.20;0.08;;;8.40;96.70;;;;;;4978997;28;20067;-83
2020/12/26 06:48:58;;;;;;;0.63;0.30;;;8.40;96.70;;;;;;5012850;28;20058;-83
2020/12/26 06:51:26;;;;;;;1.42;0.20;;;8.50;96.70;;;;;;5005309;28;20519;-83
2020/12/26 06:53:56;;;;;;;0.13;0.10;;;8.60;96.70;;;;;;4992318;28;20134;-83
2020/12/26 06:56:44;;;;;;;0.25;0.10;;;8.70;96.70;;;;;;5020218;28;20038;-83
2020/12/26 06:59:13;;;;;;;0.13;0.00;;;8.70;96.70;;;;;;5020870;28;20061;-83
2020/12/26 07:01:44;;;;;;;0.13;0.10;;;8.50;96.70;;;;;;5004705;28;20042;-83
2020/12/26 07:04:14;;;;;;;0.22;0.05;;;8.60;96.70;;;;;;5004986;28;20053;-83
2020/12/26 07:06:43;;;;;;;0.30;0.00;;;8.50;96.70;;;;;;5017433;28;20038;-82
2020/12/26 07:09:11;;;;;;;0.57;0.10;;;8.60;96.70;;;;;;5018407;28;20042;-83
2020/12/26 07:11:47;;;;;;;0.05;0.00;;;8.50;96.70;;;;;;5014471;28;20092;-83
2020/12/26 07:14:30;;;;;;;0.40;0.00;;;8.50;96.70;;;;;;5019688;28;20033;-83
2020/12/26 07:16:58;;;;;;;0.20;0.10;;;8.50;96.70;;;;;;5004862;28;20222;-83
2020/12/26 07:19:29;;;;;;;0.20;0.00;;;8.60;96.70;;;;;;5015857;28;20057;-82
2020/12/26 07:21:57;;;;;;;0.10;0.00;;;8.50;96.70;;;;;;5020144;28;20045;-83
2020/12/26 07:24:30;;;;;;;0.40;0.10;;;8.50;96.70;;;;;;4986519;28;20046;-83
2020/12/26 07:27:15;;;;;;;0.47;0.25;;;8.50;96.70;;;;;;5003984;28;20084;-83
2020/12/26 07:29:53;;;;;;;0.50;0.20;;;8.50;96.70;;;;;;4994323;28;20104;-83
2020/12/26 07:32:50;;;;;;;1.30;0.60;;;8.50;96.70;;;;;;4970662;28;20046;-83
2020/12/26 07:35:28;;;;;;;4.15;2.20;;;8.60;96.70;;;;;;5003167;28;20077;-83
2020/12/26 07:37:57;;;;;;;5.03;1.98;;;8.60;96.70;;;;;;4987599;28;20129;-83
2020/12/26 07:40:26;;;;;;;4.10;2.65;;;8.70;96.70;;;;;;5004983;28;20072;-83
2020/12/26 07:42:54;;;;;;;3.28;1.65;;;8.80;96.70;;;;;;4968024;28;20093;-82
2020/12/26 07:45:22;;;;;;;2.35;1.17;;;8.80;96.70;;;;;;4970830;28;20038;-83
2020/12/26 07:47:51;;;;;;;1.17;0.70;;;8.80;96.70;;;;;;5000127;28;20064;-83
2020/12/26 07:50:21;;;;;;;0.65;0.40;;;8.80;96.70;;;;;;4987263;28;20042;-83
2020/12/26 07:52:50;;;;;;;0.70;0.50;;;8.70;96.70;;;;;;4974105;28;20053;-83
2020/12/26 07:55:18;;;;;;;0.82;0.47;;;8.80;96.70;;;;;;4970041;28;20436;-83
2020/12/26 07:57:46;;;;;;;0.82;0.30;;;8.80;96.70;;;;;;5001764;28;20042;-82
2020/12/26 08:00:22;;;;;;;9.05;5.65;;;8.90;96.70;;;;;;4986804;28;20125;-80
2020/12/26 08:02:50;;;;;;;3.15;1.38;;;9.00;96.70;;;;;;4984414;28;20053;-80
2020/12/26 08:05:21;;;;;;;0.47;0.22;;;8.90;96.70;;;;;;4986944;28;20417;-80
2020/12/26 08:07:48;;;;;;;1.10;0.40;;;8.80;96.70;;;;;;4968800;28;20276;-81
2020/12/26 08:10:17;;;;;;;0.88;0.22;;;8.80;96.70;;;;;;4986906;28;20038;-81
2020/12/26 08:12:49;;;;;;;0.85;0.28;;;8.80;96.70;;;;;;4985517;28;20057;-81
2020/12/26 08:15:21;;;;;;;0.30;0.20;;;8.90;96.70;;;;;;4983723;28;20551;-80
2020/12/26 08:17:53;;;;;;;0.95;0.20;;;9.00;96.70;;;;;;4981960;28;20396;-77
2020/12/26 08:20:23;;;;;;;1.20;0.52;;;9.00;96.70;;;;;;4969590;28;20048;-78
2020/12/26 08:22:51;;;;;;;3.33;0.70;;;9.10;96.70;;;;;;4967122;28;20512;-78
2020/12/26 08:25:20;;;;;;;1.00;0.60;;;9.20;96.70;;;;;;4980564;28;20042;-78
2020/12/26 08:27:48;;;;;;;1.27;0.75;;;9.20;96.70;;;;;;4983945;28;20049;-80
2020/12/26 08:30:17;;;;;;;0.57;0.30;;;9.20;96.70;;;;;;4984562;28;20128;-79
2020/12/26 08:33:05;;;;;;;1.00;0.40;;;9.30;96.70;;;;;;4962834;28;20078;-80
2020/12/26 08:35:35;;;;;;;0.57;0.20;;;9.30;96.70;;;;;;4967484;28;20050;-80
2020/12/26 08:38:06;;;;;;;0.47;0.10;;;9.30;96.70;;;;;;4961934;28;20142;-79
2020/12/26 08:40:36;;;;;;;0.80;0.45;;;9.30;96.70;;;;;;4996877;28;20102;-83
2020/12/26 08:43:04;;;;;;;0.93;0.30;;;9.40;96.70;;;;;;4973004;28;20043;-80
2020/12/26 08:45:33;;;;;;;2.15;0.50;;;9.50;96.70;;;;;;4980584;28;20038;-80
2020/12/26 08:48:14;;;;;;;0.57;0.30;;;9.50;96.70;;;;;;4982278;28;20062;-78
2020/12/26 08:50:42;;;;;;;1.27;0.40;;;9.50;96.70;;;;;;4970840;28;20065;-81
2020/12/26 08:53:11;;;;;;;1.60;0.40;;;9.60;96.70;;;;;;4943918;28;20101;-83
2020/12/26 08:55:47;;;;;;;1.23;0.63;;;9.70;96.70;;;;;;4937944;28;20047;-79
2020/12/26 08:58:23;;;;;;;2.03;0.32;;;9.70;96.70;;;;;;4964455;28;20046;-80
2020/12/26 09:00:50;;;;;;;1.33;0.40;;;9.80;96.70;;;;;;4968727;28;20068;-82
2020/12/26 09:03:20;;;;;;;1.27;0.40;;;9.80;96.70;;;;;;4976821;28;20759;-80
2020/12/26 09:05:49;;;;;;;1.80;0.30;;;9.90;96.70;;;;;;4978225;28;20118;-81
2020/12/26 09:08:16;;;;;;;2.13;0.50;;;9.90;96.20;;;;;;4960196;28;20089;-82
2020/12/26 09:10:54;;;;;;;1.80;0.40;;;10.00;96.40;;;;;;4962317;28;20042;-80
2020/12/26 09:13:30;;;;;;;2.80;0.93;;;10.10;96.70;;;;;;4982575;28;20111;-81
2020/12/26 09:15:59;;;;;;;1.08;0.50;;;10.10;96.40;;;;;;4962969;28;20046;-80
2020/12/26 09:18:28;;;;;;;1.02;0.40;;;10.10;96.10;;;;;;4962163;28;20643;-82
2020/12/26 09:20:57;;;;;;;1.30;0.40;;;10.10;96.10;;;;;;4978675;28;20508;-83
2020/12/26 09:23:32;;;;;;;0.95;0.35;;;10.10;95.70;;;;;;4967019;28;20163;-82
2020/12/26 09:26:16;;;;;;;0.90;0.30;;;10.20;95.60;;;;;;4983223;28;20038;-84
2020/12/26 09:28:45;;;;;;;0.75;0.25;;;10.20;92.50;;;;;;4967877;28;20575;-84
2020/12/26 09:31:14;;;;;;;1.17;0.40;;;10.30;92.40;;;;;;4984121;28;20058;-85
2020/12/26 09:33:41;;;;;;;1.23;0.40;;;10.30;92.40;;;;;;4973689;28;20053;-85
2020/12/26 09:36:14;;;;;;;3.80;0.52;;;10.30;92.30;;;;;;4951065;28;20049;-87
2020/12/26 09:38:42;;;;;;;1.67;0.45;;;10.30;92.80;;;;;;4957674;28;20071;-85
2020/12/26 09:41:11;;;;;;;1.30;0.43;;;10.30;92.50;;;;;;4948264;28;20087;-82
2020/12/26 09:43:39;;;;;;;2.97;0.80;;;10.20;93.10;;;;;;4996642;28;20065;-83
2020/12/26 09:46:07;;;;;;;2.47;0.40;;;10.30;93.30;;;;;;4965711;28;20047;-87
2020/12/26 09:48:34;;;;;;;1.45;0.40;;;10.40;92.60;;;;;;4982799;28;20042;-88
2020/12/26 09:51:03;;;;;;;0.85;0.52;;;10.40;92.50;;;;;;4980501;28;20113;-87
2020/12/26 09:53:31;;;;;;;1.17;0.40;;;10.40;92.80;;;;;;4965712;28;20054;-85
2020/12/26 09:55:59;;;;;;;1.17;0.30;;;10.40;91.90;;;;;;4949514;28;20047;-86
2020/12/26 09:58:26;;;;;;;1.67;0.30;;;10.40;92.40;;;;;;4985691;28;20053;-87
2020/12/26 10:00:54;;;;;;;1.05;0.70;;;10.30;92.50;;;;;;4982069;28;20769;-86
2020/12/26 10:03:21;;;;;;;1.42;0.60;;;10.30;92.10;;;;;;4986947;28;20046;-84
2020/12/26 10:05:48;;;;;;;1.13;0.50;;;10.30;92.00;;;;;;4969349;28;20062;-85
2020/12/26 10:08:18;;;;;;;1.33;0.30;;;10.30;90.80;;;;;;4975636;28;20456;-83
2020/12/26 10:10:46;;;;;;;2.50;0.45;;;10.30;90.60;;;;;;4998365;28;20042;-85
2020/12/26 10:13:13;;;;;;;1.88;0.70;;;10.30;91.10;;;;;;4989075;28;20046;-85
2020/12/26 10:15:41;;;;;;;2.25;1.15;;;10.40;91.00;;;;;;4951836;28;20167;-86
2020/12/26 10:18:08;;;;;;;3.05;0.70;;;10.40;90.60;;;;;;5000507;28;20472;-86
2020/12/26 10:20:36;;;;;;;0.90;0.35;;;10.40;90.70;;;;;;4986805;28;20217;-85
2020/12/26 10:23:04;;;;;;;7.72;5.47;;;10.40;90.50;;;;;;4975166;28;20092;-85
2020/12/26 10:25:49;;;;;;;15.65;10.18;;;10.30;90.00;;;;;;4947778;28;20050;-85
2020/12/26 10:28:17;;;;;;;2.60;1.00;;;10.30;90.50;;;;;;4966123;28;20090;-86
2020/12/26 10:30:46;;;;;;;2.15;1.23;;;10.30;90.30;;;;;;4981806;28;20042;-83
2020/12/26 10:33:14;;;;;;;1.50;0.77;;;10.20;90.70;;;;;;4990186;28;20054;-85
2020/12/26 10:35:41;;;;;;;1.63;0.73;;;10.20;91.10;;;;;;4985538;28;20038;-85
2020/12/26 10:38:09;;;;;;;11.50;6.22;;;10.20;91.00;;;;;;4982850;28;20725;-86
2020/12/26 10:40:36;;;;;;;1.95;0.80;;;10.20;90.80;;;;;;4960746;28;20050;-81
2020/12/26 10:43:05;;;;;;;1.60;0.70;;;10.30;90.60;;;;;;4976180;28;20038;-83
2020/12/26 10:45:32;;;;;;;2.92;1.00;;;10.30;89.90;;;;;;4980635;28;20125;-84
2020/12/26 10:48:00;;;;;;;2.20;0.70;;;10.20;89.60;;;;;;4969523;28;20046;-84
2020/12/26 10:50:27;;;;;;;3.13;1.75;;;10.30;89.60;;;;;;4977802;28;20049;-82
2020/12/26 10:52:56;;;;;;;3.30;2.00;;;10.30;89.70;;;;;;4972872;28;20043;-84
2020/12/26 10:55:28;;;;;;;3.92;1.83;;;10.40;89.00;;;;;;4980928;28;20056;-84
2020/12/26 10:57:55;;;;;;;2.78;1.40;;;10.40;88.80;;;;;;4969404;28;20053;-84
2020/12/26 11:00:24;;;;;;;2.38;1.10;;;10.50;89.00;;;;;;4966185;28;20046;-84
2020/12/26 11:02:51;;;;;;;4.10;1.85;;;10.60;88.90;;;;;;4972478;28;20050;-84
2020/12/26 11:05:19;;;;;;;4.32;2.40;;;10.70;89.30;;;;;;4967143;28;20579;-84
2020/12/26 11:07:46;;;;;;;2.42;1.20;;;10.80;88.90;;;;;;4984203;28;20579;-84
2020/12/26 11:10:13;;;;;;;2.25;1.40;;;10.80;88.10;;;;;;4983904;28;20052;-85
2020/12/26 11:12:41;;;;;;;3.13;1.80;;;10.90;88.20;;;;;;4970089;28;20038;-84
2020/12/26 11:15:08;;;;;;;2.00;1.10;;;10.90;88.60;;;;;;4949710;28;20062;-84
2020/12/26 11:17:36;;;;;;;2.92;1.20;;;10.90;87.90;;;;;;4964765;28;20536;-83
2020/12/26 11:20:04;;;;;;;3.58;2.10;;;10.80;88.00;;;;;;4971819;28;20491;-84
2020/12/26 11:22:31;;;;;;;6.88;2.92;;;10.90;88.60;;;;;;4966716;28;20509;-84
2020/12/26 11:24:59;;;;;;;6.85;3.08;;;10.90;89.30;;;;;;4983970;28;20121;-84
2020/12/26 11:27:26;;;;;;;5.55;2.30;;;11.00;89.00;;;;;;4969394;28;20046;-85
2020/12/26 11:29:54;;;;;;;3.28;1.30;;;11.00;88.30;;;;;;4985818;28;20050;-84
2020/12/26 11:32:21;;;;;;;4.65;1.60;;;11.00;87.40;;;;;;5004768;28;20058;-84
2020/12/26 11:34:49;;;;;;;3.15;1.85;;;11.10;88.40;;;;;;5025266;28;20125;-83
2020/12/26 11:37:17;;;;;;;4.10;0.70;;;11.10;88.50;;;;;;5020339;28;20069;-84
2020/12/26 11:39:45;;;;;;;1.60;0.68;;;11.00;87.70;;;;;;5011539;28;20041;-84
2020/12/26 11:42:13;;;;;;;2.05;1.13;;;10.90;88.40;;;;;;5022317;28;20519;-84
2020/12/26 11:44:41;;;;;;;5.63;1.75;;;10.90;88.60;;;;;;5005449;28;20041;-84
2020/12/26 11:47:08;;;;;;;3.15;1.48;;;10.90;89.00;;;;;;5024847;28;20041;-84
2020/12/26 11:49:35;;;;;;;3.65;2.30;;;10.80;88.60;;;;;;5024239;28;20290;-85
2020/12/26 11:52:04;;;;;;;3.85;2.13;;;10.80;89.10;;;;;;5006293;28;20522;-84
2020/12/26 11:54:31;;;;;;;3.83;1.60;;;10.80;89.00;;;;;;5003773;28;20096;-84
2020/12/26 11:56:59;;;;;;;2.33;1.30;;;10.80;89.60;;;;;;5006725;28;20044;-84
2020/12/26 11:59:27;;;;;;;2.25;1.20;;;10.80;88.80;;;;;;5009997;28;20920;-84
2020/12/26 12:01:55;;;;;;;1.83;1.10;;;10.80;88.40;;;;;;5007004;28;20041;-84
2020/12/26 12:04:25;;;;;;;2.05;1.05;;;10.70;87.80;;;;;;5006600;28;20041;-84
2020/12/26 12:06:53;;;;;;;3.00;1.70;;;10.80;87.90;;;;;;5022718;28;20050;-84
2020/12/26 12:09:21;;;;;;;2.75;1.77;;;10.90;88.60;;;;;;5007037;28;20045;-84
2020/12/26 12:11:53;;;;;;;3.33;1.90;;;11.00;88.80;;;;;;5020708;28;20034;-84
2020/12/26 12:14:21;;;;;;;4.30;2.17;;;11.00;88.40;;;;;;5019310;28;20120;-84
2020/12/26 12:16:49;;;;;;;4.40;2.53;;;10.90;88.20;;;;;;5006356;28;20045;-83
2020/12/26 12:19:16;;;;;;;11.82;7.43;;;10.90;88.60;;;;;;5022718;28;20491;-84
2020/12/26 12:21:45;;;;;;;6.65;3.40;;;10.90;89.30;;;;;;5022016;28;20053;-85
2020/12/26 12:24:12;;;;;;;7.28;4.32;;;11.00;88.80;;;;;;5009208;28;20156;-85
2020/12/26 12:26:40;;;;;;;6.65;4.20;;;10.90;88.80;;;;;;4997917;28;20042;-84
2020/12/26 12:29:08;;;;;;;6.53;3.35;;;11.00;88.60;;;;;;4990042;28;20068;-84
2020/12/26 12:31:38;;;;;;;6.15;2.53;;;11.10;88.30;;;;;;5021415;28;20050;-85
2020/12/26 12:34:05;;;;;;;3.83;1.92;;;11.20;88.60;;;;;;5007575;28;20045;-84
2020/12/26 12:36:33;;;;;;;4.75;1.92;;;11.30;88.10;;;;;;5024673;28;20033;-84
2020/12/26 12:39:00;;;;;;;3.35;1.90;;;11.20;88.00;;;;;;5012465;28;20079;-84
2020/12/26 12:41:28;;;;;;;4.90;3.00;;;11.20;88.20;;;;;;5006104;28;20665;-85
2020/12/26 12:43:56;;;;;;;3.97;2.22;;;11.40;88.40;;;;;;5006217;28;20050;-84
2020/12/26 12:46:24;;;;;;;5.72;2.50;;;11.50;87.80;;;;;;4991182;28;20831;-84
2020/12/26 12:48:52;;;;;;;3.47;2.33;;;11.50;87.20;;;;;;5022206;28;20236;-85
2020/12/26 12:51:19;;;;;;;3.88;1.80;;;11.50;86.70;;;;;;5003951;28;20067;-84
2020/12/26 12:53:49;;;;;;;2.13;1.23;;;11.50;86.30;;;;;;5022221;28;20507;-85
2020/12/26 12:56:16;;;;;;;3.53;1.45;;;11.40;86.20;;;;;;5021462;28;20055;-85
2020/12/26 12:58:44;;;;;;;3.65;1.50;;;11.30;85.90;;;;;;5006853;28;20046;-84
2020/12/26 13:01:12;;;;;;;3.67;1.40;;;11.40;86.30;;;;;;5012542;28;20037;-84
2020/12/26 13:03:39;;;;;;;5.05;1.42;;;11.30;85.70;;;;;;5008189;28;20042;-84